createdAt,value
2022-11-16T00:03:34.157Z,98219.38
2022-11-16T00:06:03.667Z,98231.44
2022-11-16T00:08:32.890Z,98221.88
2022-11-16T00:11:12.683Z,98209.06
2022-11-16T00:13:40.782Z,98202.78
2022-11-16T00:16:08.544Z,98210.66
2022-11-16T00:18:35.695Z,98213.25
2022-11-16T00:21:05.501Z,98215.78
2022-11-16T00:23:32.682Z,98205.56
2022-11-16T00:26:07.551Z,98212.44
2022-11-16T00:28:35.072Z,98196.16
2022-11-16T00:31:04.451Z,98193.78
2022-11-16T00:33:31.425Z,98177.03
2022-11-16T00:35:58.174Z,98183.56
2022-11-16T00:38:24.979Z,98185.19
2022-11-16T00:40:51.639Z,98179.59
2022-11-16T00:43:18.398Z,98198.81
2022-11-16T00:45:45.374Z,98171.13
2022-11-16T00:48:12.816Z,98203.63
2022-11-16T00:50:40.027Z,98189.94
2022-11-16T00:53:07.562Z,98203.69
2022-11-16T00:55:35.002Z,98191.41
2022-11-16T00:58:01.701Z,98200.13
2022-11-16T01:00:28.431Z,98191.22
2022-11-16T01:02:55.194Z,98176.03
2022-11-16T01:05:22.695Z,98190.03
2022-11-16T01:07:50.604Z,98179.13
2022-11-16T01:10:20.764Z,98185.47
2022-11-16T01:12:49.232Z,98170.00
2022-11-16T01:15:17.907Z,98173.19
2022-11-16T01:17:44.979Z,98171.13
2022-11-16T01:20:20.059Z,98167.16
2022-11-16T01:22:47.029Z,98146.72
2022-11-16T01:25:15.128Z,98140.78
2022-11-16T01:27:43.001Z,98126.13
2022-11-16T01:30:12.874Z,98137.09
2022-11-16T01:32:39.811Z,98121.31
2022-11-16T01:35:07.057Z,98118.66
2022-11-16T01:37:34.008Z,98132.84
2022-11-16T01:40:00.860Z,98122.00
2022-11-16T01:42:30.057Z,98106.50
2022-11-16T01:45:15.880Z,98101.56
2022-11-16T01:47:42.871Z,98075.41
2022-11-16T01:50:13.315Z,98088.50
2022-11-16T01:52:46.341Z,98093.78
2022-11-16T01:55:13.527Z,98103.69
2022-11-16T01:57:43.963Z,98099.34
2022-11-16T02:00:13.164Z,98096.06
2022-11-16T02:02:40.006Z,98074.09
2022-11-16T02:05:07.700Z,98085.25
2022-11-16T02:08:48.598Z,98088.44
2022-11-16T02:11:27.141Z,98082.44
2022-11-16T02:14:12.068Z,98076.06
2022-11-16T02:16:51.894Z,98073.16
2022-11-16T02:19:39.821Z,98070.34
2022-11-16T02:22:48.062Z,98064.69
2022-11-16T02:25:29.683Z,98065.72
2022-11-16T02:28:11.411Z,98059.69
2022-11-16T02:30:44.413Z,98047.16
2022-11-16T02:33:16.960Z,98061.94
2022-11-16T02:35:53.879Z,98042.97
2022-11-16T02:38:25.979Z,98034.97
2022-11-16T02:41:00.325Z,98043.97
2022-11-16T02:43:37.881Z,98036.53
2022-11-16T02:46:10.770Z,98039.69
2022-11-16T02:48:42.416Z,98028.44
2022-11-16T02:51:10.419Z,98034.47
2022-11-16T02:53:42.324Z,98036.63
2022-11-16T02:56:13.672Z,98023.56
2022-11-16T02:58:40.557Z,98018.03
2022-11-16T03:01:18.661Z,98016.25
2022-11-16T03:04:01.655Z,98024.19
2022-11-16T03:06:32.023Z,98025.19
2022-11-16T03:09:10.324Z,98022.03
2022-11-16T03:12:01.338Z,98022.97
2022-11-16T03:14:54.933Z,98013.94
2022-11-16T03:17:50.104Z,98002.38
2022-11-16T03:20:22.604Z,98022.78
2022-11-16T03:22:57.321Z,97996.97
2022-11-16T03:25:26.990Z,98009.09
2022-11-16T03:28:02.255Z,97995.19
2022-11-16T03:30:33.739Z,98003.75
2022-11-16T03:33:31.436Z,97996.09
2022-11-16T03:36:09.542Z,97993.88
2022-11-16T03:38:39.379Z,98001.59
2022-11-16T03:41:08.929Z,97997.41
2022-11-16T03:43:38.195Z,97983.34
2022-11-16T03:46:05.868Z,97981.06
2022-11-16T03:48:37.402Z,97987.72
2022-11-16T03:51:05.080Z,97987.72
2022-11-16T03:53:32.022Z,97964.03
2022-11-16T03:55:58.775Z,97968.03
2022-11-16T03:58:25.497Z,97966.03
2022-11-16T04:00:52.922Z,97968.34
2022-11-16T04:03:20.330Z,97972.84
2022-11-16T04:06:08.609Z,97954.47
2022-11-16T04:08:53.874Z,97974.97
2022-11-16T04:11:40.533Z,97980.47
2022-11-16T04:14:32.328Z,97976.13
2022-11-16T04:17:17.689Z,97974.56
2022-11-16T04:20:03.192Z,97979.72
2022-11-16T04:22:57.003Z,97967.38
2022-11-16T04:25:27.219Z,97953.97
2022-11-16T04:28:13.581Z,97951.41
2022-11-16T04:31:10.659Z,97937.19
2022-11-16T04:33:56.836Z,97929.28
2022-11-16T04:36:42.589Z,97935.09
2022-11-16T04:39:09.481Z,97924.31
2022-11-16T04:41:54.817Z,97938.06
2022-11-16T04:44:25.937Z,97942.25
2022-11-16T04:47:07.379Z,97936.34
2022-11-16T04:49:34.101Z,97931.22
2022-11-16T04:52:00.972Z,97936.59
2022-11-16T04:54:27.713Z,97911.84
2022-11-16T04:56:54.492Z,97924.41
2022-11-16T04:59:21.210Z,97925.72
2022-11-16T05:02:06.710Z,97926.72
2022-11-16T05:04:33.425Z,97923.56
2022-11-16T05:07:00.194Z,97872.03
2022-11-16T05:09:26.898Z,97914.88
2022-11-16T05:11:53.677Z,97928.59
2022-11-16T05:14:20.375Z,97929.63
2022-11-16T05:16:47.092Z,97926.59
2022-11-16T05:19:32.441Z,97928.13
2022-11-16T05:21:59.198Z,97874.00
2022-11-16T05:24:35.154Z,97913.69
2022-11-16T05:27:04.797Z,97914.03
2022-11-16T05:29:31.804Z,97914.44
2022-11-16T05:31:59.931Z,97918.28
2022-11-16T05:34:27.141Z,97899.06
2022-11-16T05:36:54.442Z,97900.72
2022-11-16T05:39:21.252Z,97880.31
2022-11-16T05:41:48.368Z,97896.91
2022-11-16T05:44:15.910Z,97887.38
2022-11-16T05:46:43.519Z,97888.69
2022-11-16T05:49:12.037Z,97887.03
2022-11-16T05:51:41.125Z,97895.03
2022-11-16T05:54:08.807Z,97883.84
2022-11-16T05:56:35.591Z,97895.34
2022-11-16T05:59:02.499Z,97876.25
2022-11-16T06:01:29.340Z,97909.53
2022-11-16T06:03:58.882Z,97902.56
2022-11-16T06:06:25.777Z,97889.66
2022-11-16T06:08:52.523Z,97903.56
2022-11-16T06:11:19.442Z,97889.91
2022-11-16T06:13:46.235Z,97879.84
2022-11-16T06:16:13.726Z,97912.81
2022-11-16T06:18:42.433Z,97906.69
2022-11-16T06:21:10.924Z,97890.53
2022-11-16T06:23:37.655Z,97897.31
2022-11-16T06:28:32.787Z,97900.00
2022-11-16T06:30:59.993Z,97857.50
2022-11-16T06:33:30.810Z,97871.03
2022-11-16T06:36:00.304Z,97874.88
2022-11-16T06:38:27.472Z,97853.09
2022-11-16T06:40:57.121Z,97898.31
2022-11-16T06:43:25.333Z,97892.97
2022-11-16T06:45:54.043Z,97893.13
2022-11-16T06:48:21.696Z,97867.06
2022-11-16T06:50:50.000Z,97882.75
2022-11-16T06:53:17.414Z,97900.66
2022-11-16T06:55:44.246Z,97875.09
2022-11-16T06:58:11.300Z,97890.53
2022-11-16T07:00:38.089Z,97867.47
2022-11-16T07:03:05.205Z,97896.25
2022-11-16T07:05:32.396Z,97858.59
2022-11-16T07:07:59.641Z,97859.03
2022-11-16T07:10:26.853Z,97881.31
2022-11-16T07:12:53.607Z,97905.41
2022-11-16T07:15:20.807Z,97906.56
2022-11-16T07:17:47.823Z,97876.75
2022-11-16T07:20:14.588Z,97908.03
2022-11-16T07:22:41.383Z,97905.56
2022-11-16T07:25:08.751Z,97918.41
2022-11-16T07:27:35.462Z,97917.56
2022-11-16T07:30:02.379Z,97883.91
2022-11-16T07:32:31.715Z,97924.34
2022-11-16T07:34:59.652Z,97924.03
2022-11-16T07:37:26.801Z,97923.53
2022-11-16T07:39:53.576Z,97925.22
2022-11-16T07:42:20.475Z,97894.75
2022-11-16T07:44:47.262Z,97909.00
2022-11-16T07:47:13.974Z,97930.00
2022-11-16T07:49:40.679Z,97930.38
2022-11-16T07:52:11.090Z,97924.38
2022-11-16T07:54:37.968Z,97928.69
2022-11-16T07:57:04.990Z,97924.03
2022-11-16T07:59:31.691Z,97927.97
2022-11-16T08:01:59.469Z,97919.78
2022-11-16T08:04:26.397Z,97920.91
2022-11-16T08:06:53.356Z,97935.81
2022-11-16T08:09:20.198Z,97926.31
2022-11-16T08:11:47.352Z,97921.63
2022-11-16T08:14:15.648Z,97938.88
2022-11-16T08:16:42.396Z,97911.47
2022-11-16T08:19:09.295Z,97917.66
2022-11-16T08:21:36.034Z,97915.00
2022-11-16T08:24:03.342Z,97940.72
2022-11-16T08:26:30.202Z,97939.53
2022-11-16T08:28:57.458Z,97954.44
2022-11-16T08:31:27.465Z,97926.16
2022-11-16T08:33:54.440Z,97967.97
2022-11-16T08:36:21.486Z,97971.13
2022-11-16T08:38:50.333Z,97974.53
2022-11-16T08:41:18.551Z,97980.03
2022-11-16T08:43:47.488Z,97985.22
2022-11-16T08:46:15.078Z,97994.38
2022-11-16T08:48:42.330Z,97974.59
2022-11-16T08:51:20.514Z,98003.34
2022-11-16T08:53:49.591Z,98008.94
2022-11-16T08:56:18.764Z,97994.78
2022-11-16T08:58:52.494Z,97964.19
2022-11-16T09:01:25.157Z,98011.13
2022-11-16T09:03:53.300Z,98012.19
2022-11-16T09:06:20.472Z,98022.56
2022-11-16T09:08:47.530Z,98030.38
2022-11-16T09:11:17.239Z,98027.56
2022-11-16T09:13:46.032Z,98045.38
2022-11-16T09:16:15.947Z,98046.88
2022-11-16T09:18:43.991Z,98047.69
2022-11-16T09:21:11.066Z,98032.16
2022-11-16T09:23:37.852Z,98054.66
2022-11-16T09:26:06.261Z,98047.28
2022-11-16T09:28:33.561Z,98056.22
2022-11-16T09:31:04.402Z,98054.00
2022-11-16T09:33:31.925Z,98038.16
2022-11-16T09:36:07.365Z,98027.16
2022-11-16T09:39:14.001Z,98040.56
2022-11-16T09:42:00.640Z,98030.09
2022-11-16T09:44:41.554Z,98035.97
2022-11-16T09:47:18.049Z,98031.09
2022-11-16T09:49:53.559Z,98005.09
2022-11-16T09:52:41.365Z,98008.31
2022-11-16T09:55:24.727Z,98028.75
2022-11-16T09:57:55.895Z,98022.34
2022-11-16T10:00:23.907Z,98032.25
2022-11-16T10:02:58.272Z,98034.50
2022-11-16T10:05:37.664Z,98023.91
2022-11-16T10:08:14.717Z,98025.97
2022-11-16T10:11:23.159Z,98019.63
2022-11-16T10:13:58.852Z,98026.97
2022-11-16T10:16:35.655Z,98023.81
2022-11-16T10:19:30.849Z,98017.47
2022-11-16T10:22:04.629Z,98002.44
2022-11-16T10:24:53.737Z,97993.38
2022-11-16T10:27:27.708Z,98007.31
2022-11-16T10:30:02.353Z,98005.13
2022-11-16T10:32:37.366Z,97990.75
2022-11-16T10:35:13.003Z,98000.44
2022-11-16T10:37:45.802Z,97995.78
2022-11-16T10:40:17.063Z,97991.50
2022-11-16T10:42:46.922Z,97983.09
2022-11-16T10:45:22.074Z,97990.13
2022-11-16T10:48:11.519Z,97993.03
2022-11-16T10:50:44.135Z,97982.31
2022-11-16T10:53:16.270Z,97988.19
2022-11-16T10:55:43.006Z,97981.50
2022-11-16T10:58:09.800Z,97975.13
2022-11-16T11:00:42.683Z,97985.19
2022-11-16T11:03:10.978Z,97977.66
2022-11-16T11:05:48.260Z,97983.00
2022-11-16T11:08:26.125Z,97981.16
2022-11-16T11:11:24.696Z,97987.50
2022-11-16T11:14:09.575Z,97963.25
2022-11-16T11:16:36.475Z,97983.66
2022-11-16T11:19:29.015Z,97936.47
2022-11-16T11:21:58.354Z,97977.63
2022-11-16T11:24:44.324Z,97938.78
2022-11-16T11:27:12.440Z,97973.16
2022-11-16T11:29:42.651Z,97958.41
2022-11-16T11:32:24.143Z,97964.75
2022-11-16T11:34:54.077Z,97958.94
2022-11-16T11:37:26.204Z,97953.41
2022-11-16T11:40:22.463Z,97960.63
2022-11-16T11:42:58.567Z,97956.75
2022-11-16T11:45:32.452Z,97950.56
2022-11-16T11:48:32.952Z,97956.94
2022-11-16T11:51:10.864Z,97956.75
2022-11-16T11:53:43.613Z,97957.75
2022-11-16T11:56:12.504Z,97948.72
2022-11-16T11:58:41.174Z,97950.06
2022-11-16T12:01:22.191Z,97947.91
2022-11-16T12:04:13.604Z,97946.34
2022-11-16T12:07:09.556Z,97943.31
2022-11-16T12:09:46.503Z,97937.38
2022-11-16T12:12:15.931Z,97941.53
2022-11-16T12:15:08.080Z,97943.91
2022-11-16T12:18:06.525Z,97888.88
2022-11-16T12:20:42.807Z,97938.88
2022-11-16T12:23:35.490Z,97930.41
2022-11-16T12:26:59.663Z,97901.63
2022-11-16T12:29:40.463Z,97833.44
2022-11-16T12:32:31.513Z,97927.06
2022-11-16T12:35:16.826Z,97913.34
2022-11-16T12:38:09.895Z,97917.19
2022-11-16T12:41:21.914Z,97908.16
2022-11-16T12:44:05.657Z,97915.84
2022-11-16T12:46:50.814Z,97905.47
2022-11-16T12:50:00.295Z,97913.16
2022-11-16T12:53:11.435Z,97911.69
2022-11-16T12:55:49.385Z,97908.00
2022-11-16T12:58:47.284Z,97904.66
2022-11-16T13:01:43.284Z,97890.94
2022-11-16T13:04:24.703Z,97897.94
2022-11-16T13:07:11.387Z,97904.50
2022-11-16T13:09:46.473Z,97892.47
2022-11-16T13:12:17.332Z,97888.59
2022-11-16T13:14:49.040Z,97889.94
2022-11-16T13:17:20.633Z,97896.97
2022-11-16T13:20:02.546Z,97872.38
2022-11-16T13:22:32.233Z,97880.25
2022-11-16T13:25:24.812Z,97855.69
2022-11-16T13:28:00.532Z,97897.13
2022-11-16T13:30:36.613Z,97889.56
2022-11-16T13:33:51.237Z,97881.22
2022-11-16T13:36:43.588Z,97885.25
2022-11-16T13:39:18.695Z,97890.59
2022-11-16T13:42:07.216Z,97882.88
2022-11-16T13:44:34.994Z,97876.88
2022-11-16T13:47:07.108Z,97874.03
2022-11-16T13:49:49.425Z,97872.88
2022-11-16T13:52:23.863Z,97864.50
2022-11-16T13:54:55.679Z,97880.56
2022-11-16T13:57:30.069Z,97884.75
2022-11-16T14:00:02.914Z,97863.84
2022-11-16T14:02:36.476Z,97854.50
2022-11-16T14:05:13.133Z,97854.81
2022-11-16T14:07:44.945Z,97862.03
2022-11-16T14:10:32.109Z,97836.25
2022-11-16T14:13:04.548Z,97851.31
2022-11-16T14:15:38.938Z,97859.34
2022-11-16T14:18:09.390Z,97859.00
2022-11-16T14:20:54.760Z,97826.06
2022-11-16T14:23:47.158Z,97857.81
2022-11-16T14:26:35.267Z,97858.00
2022-11-16T14:29:14.376Z,97855.16
2022-11-16T14:31:48.795Z,97852.81
2022-11-16T14:34:32.831Z,97843.13
2022-11-16T14:37:00.693Z,97841.13
2022-11-16T14:39:32.043Z,97846.31
2022-11-16T14:42:06.036Z,97848.66
2022-11-16T14:44:39.146Z,97823.22
2022-11-16T14:47:22.317Z,97845.28
2022-11-16T14:49:49.773Z,97850.97
2022-11-16T14:52:20.331Z,97851.13
2022-11-16T14:54:54.000Z,97821.69
2022-11-16T14:57:23.453Z,97841.59
2022-11-16T15:00:09.023Z,97836.91
2022-11-16T15:02:36.466Z,97833.09
2022-11-16T15:05:03.408Z,97841.44
2022-11-16T15:07:30.716Z,97799.28
2022-11-16T15:10:00.294Z,97833.72
2022-11-16T15:12:42.764Z,97834.91
2022-11-16T15:15:17.018Z,97815.19
2022-11-16T15:17:46.992Z,97845.94
2022-11-16T15:20:13.676Z,97839.75
2022-11-16T15:22:43.768Z,97840.06
2022-11-16T15:25:29.751Z,97844.94
2022-11-16T15:27:59.016Z,97843.56
2022-11-16T15:30:27.740Z,97840.72
2022-11-16T15:32:54.992Z,97841.56
2022-11-16T15:35:29.653Z,97837.19
2022-11-16T15:38:02.645Z,97836.56
2022-11-16T15:40:29.871Z,97837.53
2022-11-16T15:43:00.673Z,97836.41
2022-11-16T15:45:28.451Z,97807.28
2022-11-16T15:47:58.971Z,97833.19
2022-11-16T15:50:25.998Z,97840.38
2022-11-16T15:52:55.501Z,97842.22
2022-11-16T15:55:40.756Z,97838.69
2022-11-16T15:58:26.774Z,97848.91
2022-11-16T16:00:54.837Z,97849.22
2022-11-16T16:03:26.944Z,97856.09
2022-11-16T16:05:54.953Z,97857.25
2022-11-16T16:08:39.377Z,97859.91
2022-11-16T16:11:27.371Z,97866.06
2022-11-16T16:14:02.745Z,97858.56
2022-11-16T16:16:37.813Z,97867.56
2022-11-16T16:19:23.759Z,97865.06
2022-11-16T16:21:50.823Z,97858.53
2022-11-16T16:24:39.004Z,97863.06
2022-11-16T16:27:27.001Z,97862.88
2022-11-16T16:29:56.009Z,97862.72
2022-11-16T16:32:34.870Z,97852.34
2022-11-16T16:35:07.284Z,97845.00
2022-11-16T16:37:36.181Z,97844.53
2022-11-16T16:40:03.063Z,97848.16
2022-11-16T16:42:37.723Z,97864.69
2022-11-16T16:45:04.915Z,97861.34
2022-11-16T16:47:33.696Z,97858.03
2022-11-16T16:50:01.778Z,97850.03
2022-11-16T16:52:29.177Z,97853.88
2022-11-16T16:54:56.084Z,97837.69
2022-11-16T16:57:23.152Z,97825.44
2022-11-16T16:59:50.398Z,97815.25
2022-11-16T17:02:17.578Z,97844.94
2022-11-16T17:04:46.626Z,97851.00
2022-11-16T17:07:13.586Z,97840.16
2022-11-16T17:09:41.022Z,97837.63
2022-11-16T17:12:08.785Z,97840.63
2022-11-16T17:14:36.105Z,97842.19
2022-11-16T17:17:04.811Z,97849.84
2022-11-16T17:19:31.893Z,97850.16
2022-11-16T17:21:59.910Z,97863.19
2022-11-16T17:24:30.753Z,97864.03
2022-11-16T17:26:58.170Z,97860.72
2022-11-16T17:29:25.767Z,97847.38
2022-11-16T17:31:53.813Z,97858.88
2022-11-16T17:34:21.151Z,97867.72
2022-11-16T17:36:48.203Z,97841.47
2022-11-16T17:39:16.733Z,97862.22
2022-11-16T17:41:48.838Z,97867.56
2022-11-16T17:44:21.665Z,97854.19
2022-11-16T17:46:51.783Z,97857.03
2022-11-16T17:49:20.772Z,97860.91
2022-11-16T17:51:48.171Z,97870.75
2022-11-16T17:54:15.546Z,97864.09
2022-11-16T17:56:42.917Z,97876.47
2022-11-16T17:59:10.132Z,97869.94
2022-11-16T18:01:37.375Z,97862.56
2022-11-16T18:04:05.332Z,97863.94
2022-11-16T18:06:33.381Z,97863.75
2022-11-16T18:09:01.003Z,97853.25
2022-11-16T18:11:28.980Z,97850.72
2022-11-16T18:14:01.202Z,97840.38
2022-11-16T18:16:33.314Z,97825.50
2022-11-16T18:19:07.485Z,97846.69
2022-11-16T18:21:44.581Z,97837.31
2022-11-16T18:24:14.420Z,97856.38
2022-11-16T18:26:43.001Z,97851.88
2022-11-16T18:29:16.522Z,97856.91
2022-11-16T18:31:44.068Z,97844.00
2022-11-16T18:34:16.600Z,97840.66
2022-11-16T18:36:49.398Z,97839.56
2022-11-16T18:39:18.356Z,97829.03
2022-11-16T18:41:54.559Z,97833.91
2022-11-16T18:44:23.083Z,97834.56
2022-11-16T18:46:50.901Z,97815.00
2022-11-16T18:49:18.615Z,97828.03
2022-11-16T18:51:46.042Z,97830.50
2022-11-16T18:54:13.493Z,97810.31
2022-11-16T18:56:41.136Z,97812.63
2022-11-16T18:59:08.732Z,97810.84
2022-11-16T19:01:40.404Z,97822.53
2022-11-16T19:04:08.935Z,97818.69
2022-11-16T19:06:35.983Z,97813.53
2022-11-16T19:09:05.505Z,97815.97
2022-11-16T19:11:34.683Z,97820.97
2022-11-16T19:14:05.318Z,97824.38
2022-11-16T19:16:33.172Z,97817.03
2022-11-16T19:19:03.259Z,97811.19
2022-11-16T19:21:31.138Z,97821.00
2022-11-16T19:24:00.203Z,97791.91
2022-11-16T19:26:29.074Z,97795.94
2022-11-16T19:28:56.918Z,97811.00
2022-11-16T19:31:29.701Z,97804.50
2022-11-16T19:34:02.768Z,97800.44
2022-11-16T19:36:32.249Z,97782.91
2022-11-16T19:38:59.639Z,97783.09
2022-11-16T19:41:28.873Z,97800.78
2022-11-16T19:44:00.728Z,97806.66
2022-11-16T19:46:30.735Z,97813.16
2022-11-16T19:48:59.861Z,97801.28
2022-11-16T19:51:30.206Z,97788.25
2022-11-16T19:53:58.893Z,97786.94
2022-11-16T19:56:27.634Z,97792.75
2022-11-16T19:58:55.259Z,97791.28
2022-11-16T20:01:28.239Z,97795.44
2022-11-16T20:03:59.017Z,97784.41
2022-11-16T20:06:29.590Z,97784.41
2022-11-16T20:09:01.193Z,97771.06
2022-11-16T20:11:30.992Z,97768.22
2022-11-16T20:13:59.792Z,97779.25
2022-11-16T20:16:37.024Z,97781.59
2022-11-16T20:19:06.501Z,97762.22
2022-11-16T20:21:37.145Z,97773.41
2022-11-16T20:24:07.110Z,97776.75
2022-11-16T20:26:38.104Z,97764.88
2022-11-16T20:29:06.359Z,97750.38
2022-11-16T20:31:34.770Z,97754.38
2022-11-16T20:34:05.605Z,97744.84
2022-11-16T20:36:34.104Z,97765.56
2022-11-16T20:39:02.103Z,97769.38
2022-11-16T20:41:31.717Z,97761.72
2022-11-16T20:44:00.985Z,97756.88
2022-11-16T20:46:30.997Z,97752.88
2022-11-16T20:49:00.459Z,97760.91
2022-11-16T20:51:29.183Z,97765.56
2022-11-16T20:54:07.631Z,97742.50
2022-11-16T20:56:35.671Z,97753.03
2022-11-16T20:59:03.184Z,97753.19
2022-11-16T21:01:32.861Z,97763.06
2022-11-16T21:04:02.379Z,97759.06
2022-11-16T21:06:29.567Z,97745.88
2022-11-16T21:08:56.668Z,97742.19
2022-11-16T21:11:27.073Z,97744.69
2022-11-16T21:14:12.582Z,97737.19
2022-11-16T21:16:39.514Z,97731.19
2022-11-16T21:19:07.325Z,97749.38
2022-11-16T21:21:34.604Z,97749.22
2022-11-16T21:24:01.884Z,97744.38
2022-11-16T21:26:30.824Z,97752.22
2022-11-16T21:28:58.789Z,97751.38
2022-11-16T21:31:28.338Z,97749.56
2022-11-16T21:33:55.558Z,97749.56
2022-11-16T21:36:24.459Z,97758.41
2022-11-16T21:38:51.984Z,97752.25
2022-11-16T21:41:20.522Z,97746.56
2022-11-16T21:43:47.421Z,97708.78
2022-11-16T21:46:21.871Z,97758.09
2022-11-16T21:48:51.233Z,97745.91
2022-11-16T21:51:20.158Z,97758.56
2022-11-16T21:53:47.353Z,97758.75
2022-11-16T21:56:16.773Z,97736.22
2022-11-16T21:58:44.001Z,97740.88
2022-11-16T22:01:12.259Z,97753.25
2022-11-16T22:03:39.412Z,97762.28
2022-11-16T22:06:26.301Z,97765.09
2022-11-16T22:08:53.071Z,97760.25
2022-11-16T22:11:22.217Z,97758.25
2022-11-16T22:13:50.422Z,97737.34
2022-11-16T22:16:19.711Z,97761.59
2022-11-16T22:18:46.691Z,97707.13
2022-11-16T22:21:13.625Z,97748.41
2022-11-16T22:23:40.788Z,97737.22
2022-11-16T22:26:11.127Z,97752.41
2022-11-16T22:28:38.128Z,97742.22
2022-11-16T22:31:22.789Z,97738.19
2022-11-16T22:33:52.664Z,97738.88
2022-11-16T22:36:19.420Z,97743.38
2022-11-16T22:38:46.115Z,97722.84
2022-11-16T22:41:12.789Z,97742.88
2022-11-16T22:43:39.959Z,97756.56
2022-11-16T22:46:06.930Z,97769.75
2022-11-16T22:48:35.867Z,97762.91
2022-11-16T22:51:24.216Z,97764.75
2022-11-16T22:53:55.867Z,97774.09
2022-11-16T22:56:23.034Z,97761.56
2022-11-16T22:58:50.364Z,97767.09
2022-11-16T23:01:17.910Z,97761.91
2022-11-16T23:03:45.148Z,97761.78
2022-11-16T23:06:12.460Z,97765.59
2022-11-16T23:08:40.310Z,97762.75
2022-11-16T23:11:32.040Z,97748.06
2022-11-16T23:14:17.890Z,97745.38
2022-11-16T23:16:45.431Z,97741.56
2022-11-16T23:19:33.287Z,97747.06
2022-11-16T23:22:18.643Z,97748.38
2022-11-16T23:25:03.993Z,97749.56
2022-11-16T23:27:45.043Z,97740.69
2022-11-16T23:30:13.352Z,97719.00
2022-11-16T23:32:41.161Z,97715.31
2022-11-16T23:35:09.019Z,97733.19
2022-11-16T23:37:52.690Z,97729.03
2022-11-16T23:40:19.841Z,97724.84
2022-11-16T23:43:05.192Z,97721.34
2022-11-16T23:45:31.956Z,97715.66
2022-11-16T23:47:58.760Z,97716.84
2022-11-16T23:50:25.465Z,97734.03
2022-11-16T23:52:52.194Z,97737.88
2022-11-16T23:55:18.992Z,97746.06
2022-11-16T23:57:45.667Z,97721.03
